Time;durP1;ratioP1;P1;durP2;ratioP2;P2;SDS_P1;SDS_P2;PMS_P1;PMS_P2;Temp;Humidity;BMP_temperature;BMP_pressure;BME280_temperature;BME280_humidity;BME280_pressure;Samples;Min_cycle;Max_cycle;Signal;HPM_P1;HPM_P2
2023/10/17 00:01:33;;;;;;;15.23;9.57;;;5.70;99.90;;;;;;5022227;28;20461;-75
2023/10/17 00:06:48;;;;;;;16.50;9.20;;;5.80;99.90;;;;;;5045892;28;20072;-75
2023/10/17 00:09:21;;;;;;;14.23;7.63;;;5.70;99.90;;;;;;5044750;28;20411;-76
2023/10/17 00:12:25;;;;;;;13.98;6.43;;;5.70;99.90;;;;;;5028288;28;20087;-75
2023/10/17 00:14:45;;;;;;;8.30;5.40;;;5.70;99.90;;;;;;5037232;28;20090;-76
2023/10/17 00:17:16;;;;;;;8.55;6.07;;;5.70;99.90;;;;;;5047267;28;20040;-76
2023/10/17 00:19:42;;;;;;;7.97;5.55;;;5.60;99.90;;;;;;5041502;28;20044;-76
2023/10/17 00:22:23;;;;;;;7.38;5.30;;;5.50;99.90;;;;;;5025928;28;20047;-75
2023/10/17 00:25:08;;;;;;;12.52;4.88;;;5.50;99.90;;;;;;5042265;28;20048;-75
2023/10/17 00:27:34;;;;;;;8.38;5.22;;;5.40;99.90;;;;;;5031383;28;20476;-76
2023/10/17 00:29:59;;;;;;;10.52;5.50;;;5.30;99.90;;;;;;5024074;28;20080;-76
2023/10/17 00:32:25;;;;;;;8.05;5.30;;;5.20;99.90;;;;;;5022532;28;20033;-75
2023/10/17 00:34:51;;;;;;;9.20;6.05;;;5.10;99.90;;;;;;5026752;28;20063;-76
2023/10/17 00:37:19;;;;;;;9.60;6.43;;;5.10;99.90;;;;;;5043210;28;20056;-75
2023/10/17 00:39:46;;;;;;;11.10;6.32;;;5.10;99.90;;;;;;5046751;28;20573;-76
2023/10/17 00:42:27;;;;;;;10.80;6.47;;;5.00;99.90;;;;;;5015103;28;20045;-76
2023/10/17 00:44:53;;;;;;;8.88;6.18;;;4.90;99.90;;;;;;5046639;28;20037;-75
2023/10/17 00:47:18;;;;;;;9.10;6.20;;;4.80;99.90;;;;;;5017234;28;20071;-75
2023/10/17 00:49:45;;;;;;;12.40;6.88;;;4.80;99.90;;;;;;5028923;28;20037;-76
2023/10/17 00:52:23;;;;;;;10.40;6.60;;;4.70;99.90;;;;;;5044817;28;20057;-75
2023/10/17 00:54:51;;;;;;;11.13;7.10;;;4.80;99.90;;;;;;5028987;28;20048;-76
2023/10/17 00:57:17;;;;;;;11.93;6.60;;;4.90;99.90;;;;;;5063650;28;20036;-75
2023/10/17 00:59:55;;;;;;;7.60;4.88;;;4.90;99.90;;;;;;5027966;28;20033;-76
2023/10/17 01:02:23;;;;;;;6.03;4.35;;;5.00;99.90;;;;;;5046334;28;20672;-75
2023/10/17 01:04:56;;;;;;;7.93;4.70;;;5.00;99.90;;;;;;5038098;28;20063;-75
2023/10/17 01:07:34;;;;;;;7.88;5.25;;;5.00;99.90;;;;;;5046979;28;20041;-76
2023/10/17 01:10:16;;;;;;;8.38;5.57;;;5.00;99.90;;;;;;5044430;28;20041;-76
2023/10/17 01:13:03;;;;;;;8.35;5.80;;;5.10;99.90;;;;;;5045346;28;20072;-75
2023/10/17 01:15:37;;;;;;;9.10;5.82;;;5.10;99.90;;;;;;5030242;28;20415;-75
2023/10/17 01:18:06;;;;;;;8.55;5.80;;;5.10;99.90;;;;;;5045393;28;20117;-76
2023/10/17 01:20:32;;;;;;;10.20;6.57;;;5.20;99.90;;;;;;5044140;28;20126;-76
2023/10/17 01:23:00;;;;;;;9.65;7.03;;;5.20;99.90;;;;;;5024570;28;20037;-75
2023/10/17 01:25:29;;;;;;;9.07;6.18;;;5.30;99.90;;;;;;5047141;28;20423;-76
2023/10/17 01:27:59;;;;;;;10.20;6.57;;;5.30;99.90;;;;;;5027249;28;20410;-76
2023/10/17 01:30:32;;;;;;;8.13;5.80;;;5.40;99.90;;;;;;5046606;28;20040;-75
2023/10/17 01:32:58;;;;;;;9.57;5.72;;;5.40;99.90;;;;;;5043675;28;20112;-75
2023/10/17 01:35:25;;;;;;;8.15;5.45;;;5.40;99.90;;;;;;5044921;28;20064;-75
2023/10/17 01:37:56;;;;;;;9.90;5.65;;;5.40;99.90;;;;;;5029271;28;20135;-75
2023/10/17 01:40:22;;;;;;;6.63;4.78;;;5.40;99.90;;;;;;5029182;28;20411;-75
2023/10/17 01:42:52;;;;;;;9.70;4.60;;;5.30;99.90;;;;;;5043593;28;20966;-75
2023/10/17 01:45:22;;;;;;;7.70;4.57;;;5.20;99.90;;;;;;5024281;28;20038;-75
2023/10/17 01:47:51;;;;;;;6.50;4.18;;;5.20;99.90;;;;;;5044654;28;20910;-76
2023/10/17 01:50:18;;;;;;;5.45;4.40;;;5.10;99.90;;;;;;5027921;28;20043;-75
2023/10/17 01:52:45;;;;;;;5.80;3.72;;;5.10;99.90;;;;;;5033281;28;20063;-75
2023/10/17 01:55:14;;;;;;;7.60;3.75;;;5.00;99.90;;;;;;5040448;28;20041;-75
2023/10/17 01:57:44;;;;;;;6.55;3.80;;;4.90;99.90;;;;;;5041366;28;20029;-75
2023/10/17 02:00:57;;;;;;;5.82;3.83;;;4.80;99.90;;;;;;5028546;28;20033;-75
2023/10/17 02:02:57;;;;;;;6.15;4.03;;;4.80;99.90;;;;;;5037844;28;20079;-75
2023/10/17 02:05:23;;;;;;;6.35;3.85;;;4.70;99.90;;;;;;5046204;28;20072;-75
2023/10/17 02:07:49;;;;;;;6.13;4.00;;;4.60;99.90;;;;;;5046845;28;20033;-75
2023/10/17 02:10:18;;;;;;;4.90;3.40;;;4.60;99.90;;;;;;5042168;28;20102;-75
2023/10/17 02:12:45;;;;;;;5.70;2.90;;;4.60;99.90;;;;;;5023870;28;20608;-75
2023/10/17 02:15:12;;;;;;;4.80;3.10;;;4.60;99.90;;;;;;5045951;28;20082;-75
2023/10/17 02:17:38;;;;;;;5.57;3.30;;;4.60;99.90;;;;;;5044082;28;20033;-75
2023/10/17 02:20:23;;;;;;;4.43;3.00;;;4.60;99.90;;;;;;5039800;28;20037;-75
2023/10/17 02:22:51;;;;;;;4.43;3.03;;;4.50;99.90;;;;;;5030206;28;20084;-75
2023/10/17 02:25:21;;;;;;;3.42;2.67;;;4.40;99.90;;;;;;5027039;28;20029;-75
2023/10/17 02:27:50;;;;;;;3.55;2.35;;;4.40;99.90;;;;;;5046281;28;20049;-75
2023/10/17 02:30:17;;;;;;;6.13;2.47;;;4.30;99.90;;;;;;5050204;28;20036;-75
2023/10/17 02:32:52;;;;;;;2.33;1.88;;;4.20;99.90;;;;;;5043535;28;20041;-75
2023/10/17 02:35:20;;;;;;;4.80;2.03;;;4.20;99.90;;;;;;5043619;28;20037;-75
2023/10/17 02:37:47;;;;;;;5.88;2.75;;;4.20;99.90;;;;;;5044995;28;20037;-75
2023/10/17 02:40:23;;;;;;;3.53;2.50;;;4.20;99.90;;;;;;5026142;28;20037;-75
2023/10/17 02:42:49;;;;;;;4.25;2.45;;;4.20;99.90;;;;;;5043345;28;20051;-75
2023/10/17 02:45:25;;;;;;;3.72;2.60;;;4.10;99.90;;;;;;5044884;28;20040;-75
2023/10/17 02:47:56;;;;;;;3.05;2.20;;;4.10;99.90;;;;;;5039210;28;20033;-75
2023/10/17 02:53:00;;;;;;;3.58;2.40;;;4.00;99.90;;;;;;5041992;28;22032;-75
2023/10/17 02:55:28;;;;;;;5.20;2.53;;;4.00;99.90;;;;;;5062312;28;20041;-75
2023/10/17 02:57:57;;;;;;;4.40;2.42;;;3.90;99.90;;;;;;5058348;28;20506;-75
2023/10/17 03:00:25;;;;;;;4.47;2.83;;;3.90;99.90;;;;;;5020020;28;21330;-75
2023/10/17 03:02:52;;;;;;;4.78;2.45;;;3.90;99.90;;;;;;5027623;28;20074;-75
2023/10/17 03:05:18;;;;;;;6.93;2.80;;;3.90;99.90;;;;;;5060787;28;20080;-75
2023/10/17 03:07:49;;;;;;;5.13;2.67;;;3.90;99.90;;;;;;5029510;28;20104;-75
2023/10/17 03:10:38;;;;;;;5.35;3.20;;;3.80;99.90;;;;;;5046823;28;20045;-75
2023/10/17 03:13:14;;;;;;;4.07;2.67;;;3.80;99.90;;;;;;5045443;28;20534;-75
2023/10/17 03:15:45;;;;;;;5.13;2.40;;;3.70;99.90;;;;;;5027609;28;20041;-75
2023/10/17 03:18:15;;;;;;;4.43;3.03;;;3.70;99.90;;;;;;5055828;28;20047;-75
2023/10/17 03:20:41;;;;;;;4.80;2.97;;;3.80;99.90;;;;;;5062467;28;20051;-74
2023/10/17 03:23:09;;;;;;;2.65;1.88;;;3.80;99.90;;;;;;5030313;28;20072;-75
2023/10/17 03:25:37;;;;;;;3.15;2.20;;;3.90;99.90;;;;;;5046784;28;20045;-75
2023/10/17 03:28:08;;;;;;;4.22;2.30;;;4.00;99.90;;;;;;5046782;28;20044;-75
2023/10/17 03:30:34;;;;;;;5.72;1.92;;;4.00;99.90;;;;;;5047101;28;20052;-75
2023/10/17 03:35:28;;;;;;;4.00;2.15;;;4.00;99.90;;;;;;5047258;28;20380;-75
2023/10/17 03:37:54;;;;;;;6.47;2.78;;;4.00;99.90;;;;;;5032243;28;20056;-74
2023/10/17 03:40:30;;;;;;;5.90;2.10;;;4.10;99.90;;;;;;5032084;28;20037;-75
2023/10/17 03:43:02;;;;;;;2.22;1.80;;;4.20;99.90;;;;;;5030000;28;20048;-74
2023/10/17 03:45:35;;;;;;;4.25;1.48;;;4.20;99.90;;;;;;5054828;28;20123;-74
2023/10/17 03:48:04;;;;;;;3.90;1.48;;;4.40;99.90;;;;;;5042186;28;21125;-74
2023/10/17 03:50:31;;;;;;;4.43;1.30;;;4.50;99.90;;;;;;5041119;28;20040;-74
2023/10/17 03:53:07;;;;;;;3.75;1.77;;;4.50;99.90;;;;;;5043111;28;20072;-74
2023/10/17 03:55:35;;;;;;;3.83;1.52;;;4.60;99.90;;;;;;5031715;28;20041;-74
2023/10/17 03:58:02;;;;;;;2.20;1.50;;;4.60;99.90;;;;;;5047676;28;20065;-74
2023/10/17 04:00:34;;;;;;;3.88;1.63;;;4.60;99.90;;;;;;5031890;28;20515;-74
2023/10/17 04:03:04;;;;;;;3.22;1.80;;;4.70;99.90;;;;;;5040244;28;20720;-74
2023/10/17 04:05:29;;;;;;;3.35;2.05;;;4.70;99.90;;;;;;5023700;28;20036;-74
2023/10/17 04:07:57;;;;;;;3.75;2.10;;;4.80;99.90;;;;;;5043940;28;20087;-74
2023/10/17 04:10:23;;;;;;;3.47;1.75;;;4.80;99.90;;;;;;5038446;28;20041;-74
2023/10/17 04:12:49;;;;;;;3.10;1.90;;;4.90;99.90;;;;;;5028471;28;20048;-74
2023/10/17 04:15:18;;;;;;;3.55;2.05;;;4.90;99.90;;;;;;5029489;28;20071;-74
2023/10/17 04:17:46;;;;;;;3.33;1.83;;;5.00;99.90;;;;;;5042490;28;20534;-74
2023/10/17 04:20:12;;;;;;;2.90;1.90;;;5.00;99.90;;;;;;5026786;28;20064;-74
2023/10/17 04:22:43;;;;;;;4.53;3.20;;;5.10;99.90;;;;;;5043621;28;20363;-75
2023/10/17 04:25:54;;;;;;;4.30;2.38;;;5.10;99.90;;;;;;5027206;28;20131;-75
2023/10/17 04:27:54;;;;;;;4.97;2.92;;;5.20;99.90;;;;;;5039358;28;20041;-75
2023/10/17 04:30:29;;;;;;;5.78;2.10;;;5.20;99.90;;;;;;5029908;28;20473;-75
2023/10/17 04:33:05;;;;;;;5.32;2.40;;;5.30;99.90;;;;;;5031152;28;20044;-75
2023/10/17 04:35:32;;;;;;;4.38;2.88;;;5.30;99.90;;;;;;5030058;28;20090;-75
2023/10/17 04:38:11;;;;;;;7.07;2.83;;;5.40;99.90;;;;;;5046135;28;20457;-75
2023/10/17 04:40:50;;;;;;;3.85;2.40;;;5.40;99.90;;;;;;5047619;28;20040;-75
2023/10/17 04:46:01;;;;;;;6.40;3.00;;;5.50;99.90;;;;;;5047156;28;20049;-75
2023/10/17 04:48:35;;;;;;;4.25;2.60;;;5.50;99.90;;;;;;5040130;28;20037;-75
2023/10/17 04:51:14;;;;;;;5.38;3.63;;;5.50;99.90;;;;;;5046156;28;20048;-75
2023/10/17 04:53:47;;;;;;;6.50;3.20;;;5.50;99.90;;;;;;5037443;28;20566;-75
2023/10/17 04:56:15;;;;;;;5.18;3.00;;;5.50;99.90;;;;;;5044322;28;20052;-75
2023/10/17 04:58:48;;;;;;;9.00;3.38;;;5.50;99.90;;;;;;5029223;28;20037;-74
2023/10/17 05:01:46;;;;;;;9.10;3.03;;;5.60;99.90;;;;;;5047235;28;20044;-75
2023/10/17 06:17:47;;;;;;;12.02;7.75;;;6.40;99.90;;;;;;5063367;28;20048;-75
2023/10/17 06:20:13;;;;;;;14.07;8.02;;;6.50;99.90;;;;;;5046403;28;20037;-75
2023/10/17 06:33:36;;;;;;;9.57;5.05;;;6.60;99.90;;;;;;5040552;28;20072;-75
2023/10/17 06:36:24;;;;;;;11.23;4.00;;;6.60;99.90;;;;;;5042952;28;20036;-75
2023/10/17 06:38:51;;;;;;;8.60;3.58;;;6.60;99.90;;;;;;5027321;28;20491;-74
2023/10/17 06:44:26;;;;;;;7.55;4.00;;;6.70;99.90;;;;;;5018759;28;20045;-75
2023/10/17 06:49:55;;;;;;;8.82;5.53;;;6.80;99.90;;;;;;5052431;28;20041;-74
2023/10/17 06:54:53;;;;;;;6.88;4.82;;;6.90;99.90;;;;;;5048718;28;20375;-74
2023/10/17 06:57:19;;;;;;;12.57;6.72;;;6.90;99.90;;;;;;5049886;28;20064;-74
2023/10/17 06:59:51;;;;;;;10.48;6.15;;;7.00;99.90;;;;;;5048845;28;20116;-74
2023/10/17 07:02:28;;;;;;;18.48;8.02;;;7.00;99.90;;;;;;5028842;28;20048;-75
2023/10/17 07:04:55;;;;;;;23.13;7.65;;;7.10;99.90;;;;;;5033362;28;20045;-75
2023/10/17 07:07:24;;;;;;;21.05;7.10;;;7.10;99.90;;;;;;5031125;28;20491;-75
2023/10/17 07:10:07;;;;;;;15.52;5.50;;;7.10;99.90;;;;;;5047799;28;20541;-74
2023/10/17 07:12:38;;;;;;;7.32;4.10;;;7.20;99.90;;;;;;5044084;28;20056;-74
2023/10/17 07:15:12;;;;;;;8.60;4.85;;;7.20;99.90;;;;;;5044913;28;20578;-74
2023/10/17 07:17:48;;;;;;;6.60;4.00;;;7.30;99.90;;;;;;5046091;28;20082;-74
2023/10/17 07:20:24;;;;;;;8.13;4.55;;;7.40;99.90;;;;;;5032276;28;20033;-74
2023/10/17 07:22:57;;;;;;;8.85;4.82;;;7.50;99.90;;;;;;5045122;28;20036;-74
2023/10/17 07:25:23;;;;;;;6.80;4.13;;;7.60;99.90;;;;;;5041525;28;20025;-75
2023/10/17 07:27:52;;;;;;;11.90;4.90;;;7.70;99.90;;;;;;5049283;28;20498;-74
2023/10/17 07:30:40;;;;;;;8.93;5.45;;;7.70;99.90;;;;;;5045482;28;20048;-74
2023/10/17 07:33:08;;;;;;;6.97;4.57;;;7.80;99.90;;;;;;5048356;28;20037;-74
2023/10/17 07:35:36;;;;;;;10.52;5.35;;;7.90;99.90;;;;;;5031834;28;20119;-74
2023/10/17 07:38:04;;;;;;;11.70;4.95;;;8.00;99.90;;;;;;5026462;28;20066;-74
2023/10/17 07:41:15;;;;;;;7.32;4.53;;;8.00;99.90;;;;;;5049863;28;20032;-74
2023/10/17 07:43:21;;;;;;;10.75;5.13;;;8.20;99.90;;;;;;5040270;28;20060;-74
2023/10/17 07:46:05;;;;;;;10.43;5.07;;;8.20;99.90;;;;;;5033157;28;20488;-74
2023/10/17 07:48:31;;;;;;;8.95;4.45;;;8.30;99.90;;;;;;5044918;28;20046;-74
2023/10/17 07:50:59;;;;;;;10.65;5.78;;;8.30;99.90;;;;;;5045053;28;20507;-74
2023/10/17 07:53:26;;;;;;;12.13;5.88;;;8.40;99.90;;;;;;5047253;28;20136;-74
2023/10/17 07:56:02;;;;;;;6.63;4.93;;;8.50;99.90;;;;;;5041593;28;20052;-74
2023/10/17 07:58:44;;;;;;;8.02;4.40;;;8.60;99.90;;;;;;5047754;28;20433;-74
2023/10/17 08:01:14;;;;;;;10.20;5.00;;;8.80;99.90;;;;;;5032655;28;20049;-74
2023/10/17 08:03:41;;;;;;;8.75;4.70;;;8.80;99.90;;;;;;5032364;28;20049;-74
2023/10/17 08:06:12;;;;;;;9.10;4.07;;;8.80;99.90;;;;;;5033057;28;20044;-74
2023/10/17 08:08:43;;;;;;;8.60;4.75;;;8.70;99.90;;;;;;5031622;28;20503;-74
2023/10/17 08:11:28;;;;;;;6.97;4.45;;;8.70;99.90;;;;;;5060502;28;20152;-74
2023/10/17 08:13:55;;;;;;;10.32;5.25;;;8.50;99.90;;;;;;5035201;28;20037;-74
2023/10/17 08:17:05;;;;;;;9.68;4.30;;;8.50;99.90;;;;;;5035774;28;20037;-74
2023/10/17 08:19:14;;;;;;;6.65;4.13;;;8.50;99.90;;;;;;5043474;28;20260;-74
2023/10/17 08:21:49;;;;;;;8.13;4.30;;;8.40;99.90;;;;;;5022198;28;20095;-74
2023/10/17 08:24:16;;;;;;;7.25;4.00;;;8.40;99.90;;;;;;5048510;28;20048;-74
2023/10/17 08:26:42;;;;;;;6.55;4.20;;;8.30;99.90;;;;;;5047231;28;20037;-74
2023/10/17 08:29:11;;;;;;;8.70;4.57;;;8.20;99.90;;;;;;5049891;28;20082;-74
2023/10/17 08:31:43;;;;;;;6.38;3.88;;;8.20;99.90;;;;;;5047181;28;20439;-73
2023/10/17 08:34:12;;;;;;;8.25;3.80;;;8.10;99.90;;;;;;5030854;28;20450;-74
2023/10/17 08:39:26;;;;;;;8.40;3.72;;;8.00;99.90;;;;;;5048849;28;20049;-74
2023/10/17 08:42:11;;;;;;;10.82;3.75;;;8.00;99.90;;;;;;5041896;28;20724;-74
2023/10/17 08:44:39;;;;;;;7.40;3.15;;;8.00;99.90;;;;;;5062984;28;20064;-74
2023/10/17 08:47:05;;;;;;;7.03;2.53;;;8.00;99.90;;;;;;5045467;28;20041;-75
2023/10/17 08:49:31;;;;;;;6.60;2.80;;;8.00;99.90;;;;;;5050327;28;20055;-74
2023/10/17 08:51:58;;;;;;;6.28;3.00;;;8.10;99.90;;;;;;5047672;28;20064;-74
2023/10/17 08:54:30;;;;;;;5.40;2.67;;;8.20;99.90;;;;;;5051877;28;20130;-75
2023/10/17 08:57:00;;;;;;;11.05;2.83;;;8.20;99.90;;;;;;5032624;28;20429;-74
2023/10/17 09:02:16;;;;;;;7.30;3.03;;;8.30;99.90;;;;;;5054447;28;20095;-75
2023/10/17 09:04:45;;;;;;;4.03;2.38;;;8.20;99.90;;;;;;5047504;28;20454;-74
2023/10/17 09:07:19;;;;;;;4.05;2.40;;;8.20;99.90;;;;;;5042607;28;20049;-75
2023/10/17 09:09:54;;;;;;;4.88;2.63;;;8.30;99.90;;;;;;5045153;28;20107;-75
2023/10/17 09:12:27;;;;;;;3.63;2.10;;;8.30;99.90;;;;;;5042896;28;20037;-75
2023/10/17 09:14:56;;;;;;;6.82;2.70;;;8.40;99.90;;;;;;5047546;28;20037;-75
2023/10/17 09:19:51;;;;;;;10.23;2.70;;;8.30;99.90;;;;;;5048045;28;20102;-73
2023/10/17 09:22:34;;;;;;;5.82;1.90;;;8.40;99.90;;;;;;5030048;28;20048;-75
2023/10/17 09:25:26;;;;;;;5.45;1.67;;;8.40;99.90;;;;;;5045702;28;20102;-74
2023/10/17 09:27:56;;;;;;;3.03;1.60;;;8.40;99.90;;;;;;5044803;28;20055;-74
2023/10/17 09:30:23;;;;;;;2.45;1.50;;;8.40;99.90;;;;;;5046657;28;20047;-74
2023/10/17 09:32:49;;;;;;;4.43;1.70;;;8.50;99.90;;;;;;5029013;28;20036;-74
2023/10/17 09:35:18;;;;;;;5.10;1.35;;;8.60;99.90;;;;;;5044166;28;20043;-74
2023/10/17 09:37:51;;;;;;;1.90;1.15;;;8.60;99.90;;;;;;5028977;28;20048;-75
2023/10/17 09:40:29;;;;;;;6.03;2.13;;;8.70;99.90;;;;;;5046611;28;20033;-74
2023/10/17 09:42:55;;;;;;;4.28;1.25;;;8.70;99.90;;;;;;5040016;28;20039;-74
2023/10/17 09:45:33;;;;;;;3.53;1.55;;;8.80;99.90;;;;;;5043541;28;20399;-75
2023/10/17 09:48:04;;;;;;;4.88;1.38;;;8.90;99.90;;;;;;5030055;28;20144;-75
2023/10/17 09:50:34;;;;;;;3.63;1.58;;;9.00;99.90;;;;;;5046259;28;20053;-75
2023/10/17 09:53:22;;;;;;;2.30;1.48;;;9.10;99.90;;;;;;5028587;28;20048;-75
2023/10/17 09:55:55;;;;;;;5.85;2.15;;;9.10;99.90;;;;;;5025396;28;20082;-75
2023/10/17 09:58:27;;;;;;;2.72;1.30;;;9.30;99.90;;;;;;5037844;28;20063;-75
2023/10/17 10:00:56;;;;;;;1.73;1.42;;;9.40;99.90;;;;;;5042977;28;20128;-75
2023/10/17 10:03:25;;;;;;;4.28;1.58;;;9.40;99.90;;;;;;5027908;28;20037;-75
2023/10/17 10:05:55;;;;;;;1.90;1.13;;;9.50;99.90;;;;;;5044005;28;20048;-75
2023/10/17 10:08:34;;;;;;;3.28;1.10;;;9.60;99.90;;;;;;5046377;28;20120;-75
2023/10/17 10:11:05;;;;;;;4.65;1.20;;;9.70;99.90;;;;;;5046773;28;20130;-75
2023/10/17 10:14:01;;;;;;;3.50;1.00;;;9.90;99.90;;;;;;5029150;28;20044;-75
2023/10/17 10:16:50;;;;;;;3.08;1.17;;;10.00;99.90;;;;;;5054229;28;20037;-75
2023/10/17 10:19:19;;;;;;;4.00;1.20;;;10.10;99.90;;;;;;5026209;28;20064;-75
2023/10/17 10:22:00;;;;;;;2.55;1.10;;;10.20;99.90;;;;;;5028764;28;20049;-75
2023/10/17 10:24:28;;;;;;;2.45;1.30;;;10.30;99.90;;;;;;5045266;28;20526;-75
2023/10/17 10:27:27;;;;;;;3.40;1.08;;;10.40;99.90;;;;;;5040746;28;20068;-75
2023/10/17 10:30:31;;;;;;;2.63;1.10;;;10.60;99.90;;;;;;5055580;28;20033;-75
2023/10/17 10:32:59;;;;;;;1.65;1.08;;;10.70;99.90;;;;;;5036506;28;20048;-74
2023/10/17 10:35:24;;;;;;;4.32;1.13;;;10.70;99.90;;;;;;5044246;28;20037;-73
2023/10/17 10:37:54;;;;;;;2.22;1.00;;;10.70;99.90;;;;;;5024019;28;20132;-74
2023/10/17 10:40:25;;;;;;;4.32;1.20;;;10.80;99.90;;;;;;5033203;28;20626;-74
2023/10/17 10:42:58;;;;;;;3.33;0.95;;;10.90;95.00;;;;;;5028672;28;20524;-73
2023/10/17 10:45:31;;;;;;;2.33;0.73;;;11.00;75.20;;;;;;5028367;28;20411;-72
2023/10/17 10:48:01;;;;;;;2.00;0.68;;;11.00;47.90;;;;;;5044704;28;20045;-73
2023/10/17 10:50:33;;;;;;;3.03;0.77;;;11.10;10.10;;;;;;5045875;28;20138;-73
2023/10/17 10:53:19;;;;;;;2.58;0.70;;;11.00;1.00;;;;;;5027959;28;20087;-73
2023/10/17 10:56:06;;;;;;;1.87;0.83;;;11.00;1.00;;;;;;5027875;28;20079;-73
2023/10/17 10:58:33;;;;;;;1.08;0.68;;;11.00;1.00;;;;;;5035615;28;20318;-73
2023/10/17 11:01:02;;;;;;;1.85;0.85;;;11.10;1.00;;;;;;5027950;28;20045;-73
2023/10/17 11:03:31;;;;;;;2.95;0.68;;;11.10;1.00;;;;;;5062538;28;20495;-73
2023/10/17 11:06:04;;;;;;;3.15;0.73;;;11.20;1.00;;;;;;5033321;28;20045;-73
2023/10/17 11:08:45;;;;;;;1.67;0.90;;;11.30;1.00;;;;;;5026986;28;20664;-73
2023/10/17 11:11:14;;;;;;;1.90;0.70;;;11.40;1.00;;;;;;5023143;28;20049;-72
2023/10/17 11:13:48;;;;;;;3.40;0.75;;;11.40;1.00;;;;;;5045820;28;20094;-73
2023/10/17 11:16:24;;;;;;;2.22;0.80;;;11.50;1.00;;;;;;5044247;28;20487;-73
2023/10/17 11:18:50;;;;;;;3.15;0.60;;;11.50;99.90;;;;;;5025838;28;20036;-73
2023/10/17 11:21:21;;;;;;;1.85;0.60;;;11.60;99.90;;;;;;5043300;28;20119;-73
2023/10/17 11:23:54;;;;;;;3.25;0.80;;;11.60;99.90;;;;;;5044844;28;20095;-73
2023/10/17 11:26:23;;;;;;;1.67;0.80;;;11.60;99.90;;;;;;5042851;28;20081;-73
2023/10/17 11:28:52;;;;;;;3.53;0.90;;;11.70;99.90;;;;;;5043897;28;20459;-73
2023/10/17 11:31:22;;;;;;;3.22;0.60;;;11.80;99.90;;;;;;5047380;28;20397;-73
2023/10/17 11:33:58;;;;;;;6.18;0.80;;;11.90;99.90;;;;;;5049495;28;20119;-72
2023/10/17 11:36:37;;;;;;;2.88;1.02;;;11.90;99.90;;;;;;5044224;28;20048;-72
2023/10/17 11:39:05;;;;;;;1.42;0.68;;;12.00;72.20;;;;;;5023840;28;20064;-72
2023/10/17 11:41:41;;;;;;;2.50;0.68;;;12.00;25.90;;;;;;5032392;28;20041;-73
2023/10/17 11:44:09;;;;;;;1.52;0.70;;;12.00;5.20;;;;;;5032536;28;20040;-73
2023/10/17 11:46:35;;;;;;;5.78;1.27;;;12.00;1.90;;;;;;5047600;28;20051;-73
2023/10/17 11:49:21;;;;;;;2.67;1.00;;;12.10;1.00;;;;;;5033111;28;20091;-73
2023/10/17 11:52:05;;;;;;;3.63;0.90;;;12.10;1.00;;;;;;5057460;28;20033;-73
2023/10/17 11:54:32;;;;;;;1.92;1.10;;;12.10;1.00;;;;;;5030463;28;20165;-73
2023/10/17 11:57:13;;;;;;;1.77;0.90;;;12.10;1.00;;;;;;5032080;28;20454;-73
2023/10/17 12:00:21;;;;;;;3.13;0.70;;;12.10;1.00;;;;;;5047084;28;20040;-73
2023/10/17 12:02:47;;;;;;;2.53;0.90;;;12.10;1.00;;;;;;5047735;28;20107;-73
2023/10/17 12:05:22;;;;;;;2.53;1.25;;;12.10;99.90;;;;;;5032109;28;20037;-73
2023/10/17 12:07:54;;;;;;;1.88;1.05;;;12.20;99.90;;;;;;5041142;28;20044;-73
2023/10/17 12:10:21;;;;;;;1.60;0.95;;;12.20;99.90;;;;;;5039685;28;20045;-73
2023/10/17 12:12:47;;;;;;;4.00;0.90;;;12.20;99.90;;;;;;5027642;28;20095;-73
2023/10/17 12:15:13;;;;;;;1.63;1.00;;;12.20;99.90;;;;;;5029690;28;20047;-73
2023/10/17 12:17:44;;;;;;;2.28;0.90;;;12.20;99.90;;;;;;5031389;28;20038;-73
2023/10/17 12:20:12;;;;;;;3.83;0.90;;;12.20;99.90;;;;;;5027923;28;20402;-73
2023/10/17 12:22:39;;;;;;;2.15;0.90;;;12.30;99.90;;;;;;5042930;28;20037;-73
2023/10/17 12:25:16;;;;;;;3.30;1.40;;;12.30;99.90;;;;;;5028743;28;20236;-74
2023/10/17 12:27:42;;;;;;;3.15;1.42;;;12.30;99.90;;;;;;5036465;28;20052;-74
2023/10/17 12:30:11;;;;;;;1.42;0.90;;;12.30;99.90;;;;;;5046290;28;20041;-74
2023/10/17 12:32:36;;;;;;;1.35;0.88;;;12.40;99.90;;;;;;5010667;28;20567;-74
2023/10/17 12:35:12;;;;;;;2.13;0.90;;;12.40;99.90;;;;;;5058401;28;20132;-74
2023/10/17 12:37:43;;;;;;;3.57;0.90;;;12.50;99.90;;;;;;5038206;28;20048;-75
2023/10/17 12:40:18;;;;;;;4.28;1.00;;;12.50;99.90;;;;;;5027668;28;20295;-74
2023/10/17 12:42:46;;;;;;;2.10;0.95;;;12.50;99.90;;;;;;5046005;28;20106;-74
2023/10/17 12:45:14;;;;;;;2.08;1.20;;;12.50;99.90;;;;;;5031550;28;20399;-75
2023/10/17 12:47:43;;;;;;;2.65;1.00;;;12.50;99.90;;;;;;5030161;28;20446;-75
2023/10/17 12:50:13;;;;;;;5.00;1.17;;;12.50;99.90;;;;;;5042252;28;20041;-75
2023/10/17 12:52:39;;;;;;;2.17;1.20;;;12.50;99.90;;;;;;5046058;28;20716;-75
2023/10/17 12:55:07;;;;;;;2.92;1.25;;;12.50;99.90;;;;;;5029515;28;20040;-75
2023/10/17 12:57:33;;;;;;;4.72;1.30;;;12.50;99.90;;;;;;5046307;28;20059;-75
2023/10/17 12:59:59;;;;;;;4.05;1.40;;;12.50;99.90;;;;;;5042759;28;20076;-75
2023/10/17 13:02:29;;;;;;;3.00;0.90;;;12.40;99.90;;;;;;5036952;28;20068;-75
2023/10/17 13:04:55;;;;;;;2.65;1.30;;;12.40;99.90;;;;;;5046279;28;20052;-75
2023/10/17 13:07:23;;;;;;;2.30;1.08;;;12.40;99.90;;;;;;5045705;28;20049;-74
2023/10/17 13:09:49;;;;;;;2.03;1.23;;;12.40;99.90;;;;;;5042178;28;20498;-75
2023/10/17 13:12:15;;;;;;;2.42;1.00;;;12.40;99.90;;;;;;5020494;28;20102;-75
2023/10/17 13:14:40;;;;;;;4.53;1.35;;;12.40;99.90;;;;;;5041323;28;20037;-75
2023/10/17 13:17:11;;;;;;;2.13;0.95;;;12.30;99.90;;;;;;5054837;28;20083;-74
2023/10/17 13:19:40;;;;;;;2.10;0.88;;;12.30;99.90;;;;;;5032550;28;20760;-72
2023/10/17 13:22:08;;;;;;;3.38;1.20;;;12.30;99.90;;;;;;5044051;28;20076;-74
2023/10/17 13:24:35;;;;;;;3.47;1.30;;;12.30;99.90;;;;;;5038802;28;20051;-74
2023/10/17 13:27:04;;;;;;;3.60;0.90;;;12.40;99.90;;;;;;5042045;28;20098;-74
2023/10/17 13:29:31;;;;;;;2.42;0.98;;;12.30;99.90;;;;;;5040021;28;20699;-72
2023/10/17 13:31:58;;;;;;;3.33;1.25;;;12.30;99.90;;;;;;5042251;28;20185;-73
2023/10/17 13:34:26;;;;;;;2.35;1.25;;;12.30;99.90;;;;;;5024034;28;20043;-73
2023/10/17 13:36:52;;;;;;;1.13;0.90;;;12.30;99.90;;;;;;5023389;28;20044;-74
2023/10/17 13:39:22;;;;;;;2.25;1.42;;;12.30;99.90;;;;;;5044715;28;20398;-73
2023/10/17 13:41:48;;;;;;;3.13;1.10;;;12.20;99.90;;;;;;5024824;28;20484;-74
2023/10/17 13:44:15;;;;;;;1.92;1.00;;;12.20;99.90;;;;;;5025541;28;20366;-73
2023/10/17 13:46:41;;;;;;;2.70;0.95;;;12.10;99.90;;;;;;5025374;28;20048;-73
2023/10/17 13:49:09;;;;;;;1.85;1.20;;;12.10;99.90;;;;;;5026865;28;20041;-73
2023/10/17 13:51:34;;;;;;;1.85;1.20;;;12.00;99.90;;;;;;5041458;28;20112;-74
2023/10/17 13:54:00;;;;;;;3.40;1.40;;;12.00;99.90;;;;;;5039876;28;20053;-73
2023/10/17 13:56:27;;;;;;;1.35;0.80;;;11.90;99.90;;;;;;5029937;28;20032;-74
2023/10/17 13:58:53;;;;;;;1.70;1.00;;;11.90;99.90;;;;;;5043646;28;20390;-74
2023/10/17 14:01:31;;;;;;;1.83;0.70;;;11.80;99.90;;;;;;5030498;28;20122;-73
2023/10/17 14:03:58;;;;;;;1.70;0.60;;;11.70;99.90;;;;;;5036058;28;20045;-73
2023/10/17 14:06:27;;;;;;;2.28;0.77;;;11.70;99.90;;;;;;5023377;28;20661;-74
2023/10/17 14:09:00;;;;;;;2.45;0.80;;;11.60;99.90;;;;;;5042598;28;20515;-73
2023/10/17 14:11:26;;;;;;;3.75;0.75;;;11.60;99.90;;;;;;5038060;28;20049;-74
2023/10/17 14:13:51;;;;;;;2.25;0.93;;;11.60;99.90;;;;;;5024213;28;20110;-73
2023/10/17 14:16:22;;;;;;;5.50;1.20;;;11.50;99.90;;;;;;5017862;28;20029;-73
2023/10/17 14:19:04;;;;;;;0.90;0.45;;;11.50;99.90;;;;;;5020498;28;20075;-73
2023/10/17 14:21:39;;;;;;;3.92;0.88;;;11.40;99.90;;;;;;5024134;28;20474;-73
2023/10/17 14:24:10;;;;;;;2.00;0.90;;;11.40;99.90;;;;;;5023920;28;20127;-73
2023/10/17 14:26:37;;;;;;;0.88;0.52;;;11.30;99.90;;;;;;5042478;28;20986;-73
2023/10/17 14:29:04;;;;;;;1.73;0.68;;;11.30;99.90;;;;;;5037658;28;20391;-73
2023/10/17 14:31:30;;;;;;;1.95;0.88;;;11.30;99.90;;;;;;5018090;28;20041;-73
2023/10/17 14:34:00;;;;;;;12.10;5.55;;;11.20;99.90;;;;;;5040844;28;20112;-73
2023/10/17 14:36:29;;;;;;;8.43;5.22;;;11.20;99.90;;;;;;5038719;28;20099;-73
2023/10/17 14:38:55;;;;;;;2.72;1.95;;;11.10;99.90;;;;;;5023115;28;20044;-74
2023/10/17 14:41:22;;;;;;;5.10;1.50;;;11.10;99.90;;;;;;5040503;28;20083;-73
2023/10/17 14:43:51;;;;;;;2.33;1.20;;;11.00;99.90;;;;;;5059007;28;20465;-73
2023/10/17 14:46:18;;;;;;;5.07;1.27;;;11.00;99.90;;;;;;5041374;28;20044;-73
2023/10/17 14:48:44;;;;;;;5.03;1.67;;;10.90;99.90;;;;;;5037112;28;20667;-74
2023/10/17 14:51:12;;;;;;;17.38;6.55;;;10.90;99.90;;;;;;5040454;28;20120;-74
2023/10/17 14:53:42;;;;;;;13.77;4.60;;;10.90;99.90;;;;;;4981884;28;1141581;-73
2023/10/17 14:56:12;;;;;;;2.83;1.08;;;10.90;99.90;;;;;;5031735;28;20045;-73
2023/10/17 14:58:42;;;;;;;3.28;0.75;;;10.70;99.90;;;;;;5041716;28;20313;-73
2023/10/17 15:01:09;;;;;;;11.27;3.97;;;10.70;99.90;;;;;;5034220;28;20041;-74
2023/10/17 15:03:34;;;;;;;5.95;1.83;;;10.70;99.90;;;;;;5030244;28;20565;-73
2023/10/17 15:06:01;;;;;;;5.03;1.88;;;10.60;99.90;;;;;;5023132;28;20042;-73